< < Back
Terminal Aerodrome Forecast


Current Version              Previous Versions:   1  2  3  4  5  6  7  8  9  

Terminal Aerodrome Forecast

006
FTUS44 KMRX 291122
TAFCHA
TAF
KCHA 291122Z 2912/3012 VRB04KT P6SM BKN250
     FM300200 VRB03KT P6SM VCSH BKN140 BKN250=

Latest METAR

709
SAUS80 KWBC 301500
MTRCHA
METAR KCHA 301453Z 00000KT 10SM BKN060 OVC100 21/15 A2998 RMK AO2 SLP147
T02110150 51008


USA.gov is the U.S. government's official web portal to all federal, state and local government web resources and services.